Time,TemperatureF,DewpointF,PressureIn,WindDirection,WindDirectionDegrees,WindSpeedMPH,WindSpeedGustMPH,Humidity,HourlyPrecipIn,Conditions,Clouds,dailyrainin,SoftwareType,DateUTC
2013-07-06 00:07:00,76.8,60.0,29.86,SE,140,5.0,-999.0,57,-99.99,,,0.00,weatherlink.com 1.10,2013-07-06 05:07:00,
2013-07-06 00:22:00,76.8,60.0,29.86,SSE,151,0.0,-999.0,57,-99.99,,,0.00,weatherlink.com 1.10,2013-07-06 05:22:00,
2013-07-06 00:37:00,76.5,61.0,29.86,SE,143,0.0,-999.0,58,-99.99,,,0.00,weatherlink.com 1.10,2013-07-06 05:37:00,
2013-07-06 00:52:00,76.0,61.0,29.86,SSE,163,4.0,-999.0,60,-99.99,,,0.00,weatherlink.com 1.10,2013-07-06 05:52:00,
2013-07-06 01:07:00,75.6,61.0,29.86,SSE,153,0.0,-999.0,60,-99.99,,,0.00,weatherlink.com 1.10,2013-07-06 06:07:00,
2013-07-06 01:22:00,75.6,61.0,29.85,SSE,155,3.0,-999.0,61,-99.99,,,0.00,weatherlink.com 1.10,2013-07-06 06:22:00,
2013-07-06 01:37:00,75.3,61.0,29.86,SSE,157,4.0,-999.0,62,-99.99,,,0.00,weatherlink.com 1.10,2013-07-06 06:37:00,
2013-07-06 01:52:00,75.1,62.0,29.85,South,171,2.0,-999.0,63,-99.99,,,0.00,weatherlink.com 1.10,2013-07-06 06:52:00,
2013-07-06 02:07:00,74.9,61.0,29.85,South,175,3.0,-999.0,63,-99.99,,,0.00,weatherlink.com 1.10,2013-07-06 07:07:00,
2013-07-06 02:22:00,74.6,62.0,29.85,SE,140,0.0,-999.0,64,-99.99,,,0.00,weatherlink.com 1.10,2013-07-06 07:22:00,
2013-07-06 02:37:00,74.0,61.0,29.85,SSE,160,4.0,-999.0,65,-99.99,,,0.00,weatherlink.com 1.10,2013-07-06 07:37:00,
2013-07-06 02:52:00,73.5,62.0,29.85,SSE,158,2.0,-999.0,67,-99.99,,,0.00,weatherlink.com 1.10,2013-07-06 07:52:00,
2013-07-06 03:07:00,73.3,62.0,29.85,SSE,151,1.0,-999.0,67,-99.99,,,0.00,weatherlink.com 1.10,2013-07-06 08:07:00,
2013-07-06 03:22:00,73.7,62.0,29.85,South,174,4.0,-999.0,67,-99.99,,,0.00,weatherlink.com 1.10,2013-07-06 08:22:00,
2013-07-06 03:37:00,73.7,62.0,29.85,SSE,163,3.0,-999.0,66,-99.99,,,0.00,weatherlink.com 1.10,2013-07-06 08:37:00,
2013-07-06 03:52:00,73.5,62.0,29.85,SSE,164,4.0,-999.0,67,-99.99,,,0.00,weatherlink.com 1.10,2013-07-06 08:52:00,
2013-07-06 04:07:00,73.7,62.0,29.85,SSE,163,1.0,-999.0,66,-99.99,,,0.00,weatherlink.com 1.10,2013-07-06 09:07:00,
2013-07-06 04:22:00,73.2,62.0,29.85,SSE,149,2.0,-999.0,67,-99.99,,,0.00,weatherlink.com 1.10,2013-07-06 09:22:00,
2013-07-06 04:37:00,72.8,62.0,29.85,SSE,164,0.0,-999.0,68,-99.99,,,0.00,weatherlink.com 1.10,2013-07-06 09:37:00,
2013-07-06 04:52:00,72.7,62.0,29.85,SSE,155,1.0,-999.0,69,-99.99,,,0.00,weatherlink.com 1.10,2013-07-06 09:52:00,
2013-07-06 05:07:00,72.5,62.0,29.85,South,184,6.0,-999.0,70,-99.99,,,0.00,weatherlink.com 1.10,2013-07-06 10:07:00,
2013-07-06 05:22:00,72.7,62.0,29.84,SE,131,1.0,-999.0,69,-99.99,,,0.00,weatherlink.com 1.10,2013-07-06 10:22:00,
2013-07-06 05:37:00,72.5,62.0,29.85,ESE,118,3.0,-999.0,69,-99.99,,,0.00,weatherlink.com 1.10,2013-07-06 10:37:00,
2013-07-06 05:52:00,72.1,62.0,29.86,SSE,157,0.0,-999.0,70,-99.99,,,0.00,weatherlink.com 1.10,2013-07-06 10:52:00,
2013-07-06 06:07:00,71.8,62.0,29.86,ESE,118,0.0,-999.0,70,-99.99,,,0.00,weatherlink.com 1.10,2013-07-06 11:07:00,
2013-07-06 06:22:00,71.5,61.0,29.87,SE,136,0.0,-999.0,70,-99.99,,,0.00,weatherlink.com 1.10,2013-07-06 11:22:00,
2013-07-06 06:37:00,71.1,61.0,29.87,SE,136,0.0,-999.0,70,-99.99,,,0.00,weatherlink.com 1.10,2013-07-06 11:37:00,
2013-07-06 06:52:00,70.9,61.0,29.87,SE,136,0.0,-999.0,71,-99.99,,,0.00,weatherlink.com 1.10,2013-07-06 11:52:00,
2013-07-06 07:07:00,71.1,61.0,29.88,SE,139,0.0,-999.0,70,-99.99,,,0.00,weatherlink.com 1.10,2013-07-06 12:07:00,
2013-07-06 07:22:00,71.8,61.0,29.88,South,182,2.0,-999.0,68,-99.99,,,0.00,weatherlink.com 1.10,2013-07-06 12:22:00,
2013-07-06 07:37:00,72.5,60.0,29.88,South,171,4.0,-999.0,65,-99.99,,,0.00,weatherlink.com 1.10,2013-07-06 12:37:00,
2013-07-06 07:52:00,72.7,60.0,29.89,SE,146,4.0,-999.0,65,-99.99,,,0.00,weatherlink.com 1.10,2013-07-06 12:52:00,
2013-07-06 08:07:00,73.0,60.0,29.89,South,184,4.0,-999.0,65,-99.99,,,0.00,weatherlink.com 1.10,2013-07-06 13:07:00,
2013-07-06 08:22:00,73.2,61.0,29.90,SE,142,5.0,-999.0,65,-99.99,,,0.00,weatherlink.com 1.10,2013-07-06 13:22:00,
2013-07-06 08:37:00,74.2,61.0,29.90,SE,139,2.0,-999.0,63,-99.99,,,0.00,weatherlink.com 1.10,2013-07-06 13:37:00,
2013-07-06 08:52:00,74.9,60.0,29.91,South,178,0.0,-999.0,61,-99.99,,,0.00,weatherlink.com 1.10,2013-07-06 13:52:00,
2013-07-06 09:07:00,75.1,61.0,29.91,SSE,150,2.0,-999.0,61,-99.99,,,0.00,weatherlink.com 1.10,2013-07-06 14:07:00,
2013-07-06 09:22:00,75.4,61.0,29.92,SSE,165,6.0,-999.0,61,-99.99,,,0.00,weatherlink.com 1.10,2013-07-06 14:22:00,
2013-07-06 09:37:00,77.0,61.0,29.91,ESE,115,8.0,-999.0,59,-99.99,,,0.00,weatherlink.com 1.10,2013-07-06 14:37:00,
2013-07-06 09:52:00,78.3,61.0,29.91,South,170,1.0,-999.0,56,-99.99,,,0.00,weatherlink.com 1.10,2013-07-06 14:52:00,
2013-07-06 10:07:00,78.8,62.0,29.91,South,191,6.0,-999.0,56,-99.99,,,0.00,weatherlink.com 1.10,2013-07-06 15:07:00,
2013-07-06 10:22:00,80.3,62.0,29.91,SSE,168,10.0,-999.0,54,-99.99,,,0.00,weatherlink.com 1.10,2013-07-06 15:22:00,
2013-07-06 10:37:00,81.6,62.0,29.90,SE,128,5.0,-999.0,52,-99.99,,,0.00,weatherlink.com 1.10,2013-07-06 15:37:00,
2013-07-06 10:52:00,82.2,61.0,29.90,South,180,10.0,-999.0,49,-99.99,,,0.00,weatherlink.com 1.10,2013-07-06 15:52:00,
2013-07-06 11:07:00,83.8,62.0,29.90,South,175,0.0,-999.0,48,-99.99,,,0.00,weatherlink.com 1.10,2013-07-06 16:07:00,
2013-07-06 11:22:00,84.5,62.0,29.90,SE,140,2.0,-999.0,47,-99.99,,,0.00,weatherlink.com 1.10,2013-07-06 16:22:00,
2013-07-06 11:37:00,85.3,63.0,29.89,East,101,0.0,-999.0,47,-99.99,,,0.00,weatherlink.com 1.10,2013-07-06 16:37:00,
2013-07-06 11:52:00,85.7,62.0,29.89,South,171,7.0,-999.0,45,-99.99,,,0.00,weatherlink.com 1.10,2013-07-06 16:52:00,
2013-07-06 12:37:00,86.1,64.0,29.88,ESE,111,6.0,-999.0,47,-99.99,,,0.00,weatherlink.com 1.10,2013-07-06 17:37:00,
2013-07-06 12:52:00,86.3,64.0,29.88,SE,132,7.0,-999.0,47,-99.99,,,0.00,weatherlink.com 1.10,2013-07-06 17:52:00,
2013-07-06 13:37:00,85.5,65.0,29.87,SSE,150,2.0,-999.0,51,-99.99,,,0.00,weatherlink.com 1.10,2013-07-06 18:37:00,
2013-07-06 14:37:00,87.8,65.0,29.85,SSE,165,9.0,-999.0,47,-99.99,,,0.00,weatherlink.com 1.10,2013-07-06 19:37:00,
2013-07-06 14:52:00,88.0,64.0,29.85,SSE,164,5.0,-999.0,45,-99.99,,,0.00,weatherlink.com 1.10,2013-07-06 19:52:00,
2013-07-06 15:07:00,88.0,64.0,29.85,SSE,155,13.0,-999.0,45,-99.99,,,0.00,weatherlink.com 1.10,2013-07-06 20:07:00,
2013-07-06 15:22:00,87.6,64.0,29.85,SSE,167,6.0,-999.0,46,-99.99,,,0.00,weatherlink.com 1.10,2013-07-06 20:22:00,
2013-07-06 15:52:00,88.0,64.0,29.84,SE,142,12.0,-999.0,45,-99.99,,,0.00,weatherlink.com 1.10,2013-07-06 20:52:00,
2013-07-06 16:37:00,87.2,64.0,29.85,SSE,161,1.0,-999.0,46,-99.99,,,0.00,weatherlink.com 1.10,2013-07-06 21:37:00,
2013-07-06 16:52:00,87.4,64.0,29.85,SSE,148,2.0,-999.0,46,-99.99,,,0.00,weatherlink.com 1.10,2013-07-06 21:52:00,
2013-07-06 17:07:00,87.8,65.0,29.85,SE,144,2.0,-999.0,46,-99.99,,,0.00,weatherlink.com 1.10,2013-07-06 22:07:00,
2013-07-06 17:37:00,86.7,64.0,29.84,SE,133,4.0,-999.0,47,-99.99,,,0.00,weatherlink.com 1.10,2013-07-06 22:37:00,
2013-07-06 17:52:00,86.3,64.0,29.84,ESE,123,2.0,-999.0,47,-99.99,,,0.00,weatherlink.com 1.10,2013-07-06 22:52:00,
2013-07-06 18:07:00,85.9,64.0,29.84,South,190,6.0,-999.0,48,-99.99,,,0.00,weatherlink.com 1.10,2013-07-06 23:07:00,
2013-07-06 18:37:00,85.1,65.0,29.84,SE,134,2.0,-999.0,51,-99.99,,,0.00,weatherlink.com 1.10,2013-07-06 23:37:00,
2013-07-06 18:52:00,84.7,65.0,29.84,SE,134,0.0,-999.0,51,-99.99,,,0.00,weatherlink.com 1.10,2013-07-06 23:52:00,
2013-07-06 19:07:00,84.5,64.0,29.85,SE,127,0.0,-999.0,51,-99.99,,,0.00,weatherlink.com 1.10,2013-07-07 00:07:00,
2013-07-06 19:52:00,83.6,64.0,29.84,SE,128,0.0,-999.0,52,-99.99,,,0.00,weatherlink.com 1.10,2013-07-07 00:52:00,
2013-07-06 20:07:00,82.8,64.0,29.84,ESE,112,0.0,-999.0,53,-99.99,,,0.00,weatherlink.com 1.10,2013-07-07 01:07:00,
2013-07-06 20:22:00,82.6,64.0,29.84,SSE,162,3.0,-999.0,53,-99.99,,,0.00,weatherlink.com 1.10,2013-07-07 01:22:00,
2013-07-06 20:37:00,82.4,63.0,29.84,SSE,163,0.0,-999.0,53,-99.99,,,0.00,weatherlink.com 1.10,2013-07-07 01:37:00,
2013-07-06 21:22:00,82.0,62.0,29.84,SE,143,0.0,-999.0,51,-99.99,,,0.00,weatherlink.com 1.10,2013-07-07 02:22:00,
2013-07-06 21:37:00,81.6,62.0,29.85,SE,146,0.0,-999.0,51,-99.99,,,0.00,weatherlink.com 1.10,2013-07-07 02:37:00,
2013-07-06 22:07:00,80.3,62.0,29.87,SE,144,0.0,-999.0,54,-99.99,,,0.00,weatherlink.com 1.10,2013-07-07 03:07:00,
2013-07-06 22:37:00,79.2,62.0,29.87,SE,144,0.0,-999.0,56,-99.99,,,0.00,weatherlink.com 1.10,2013-07-07 03:37:00,
2013-07-06 22:52:00,78.8,62.0,29.87,SE,144,0.0,-999.0,57,-99.99,,,0.00,weatherlink.com 1.10,2013-07-07 03:52:00,
2013-07-06 23:07:00,78.5,62.0,29.88,SE,145,0.0,-999.0,57,-99.99,,,0.00,weatherlink.com 1.10,2013-07-07 04:07:00,
2013-07-06 23:22:00,78.5,62.0,29.88,SE,145,0.0,-999.0,57,-99.99,,,0.00,weatherlink.com 1.10,2013-07-07 04:22:00,
2013-07-06 23:37:00,78.1,62.0,29.88,SE,145,0.0,-999.0,59,-99.99,,,0.00,weatherlink.com 1.10,2013-07-07 04:37:00,
2013-07-06 23:52:00,77.9,62.0,29.89,SE,145,0.0,-999.0,59,-99.99,,,0.00,weatherlink.com 1.10,2013-07-07 04:52:00,